sensor_id;sensor_type;location;lat;lon;timestamp;temperature;humidity
46562;DHT22;32289;42.688;23.330;2023-08-17T00:01:38;21.10;99.90
46562;DHT22;32289;42.688;23.330;2023-08-17T00:05:19;21.00;99.90
46562;DHT22;32289;42.688;23.330;2023-08-17T00:08:59;21.00;99.90
46562;DHT22;32289;42.688;23.330;2023-08-17T00:12:40;20.90;99.90
46562;DHT22;32289;42.688;23.330;2023-08-17T00:20:57;20.80;99.90
46562;DHT22;32289;42.688;23.330;2023-08-17T00:29:15;20.70;99.90
46562;DHT22;32289;42.688;23.330;2023-08-17T00:32:56;20.70;99.90
46562;DHT22;32289;42.688;23.330;2023-08-17T00:41:13;20.60;99.90
46562;DHT22;32289;42.688;23.330;2023-08-17T00:45:00;20.60;99.90
46562;DHT22;32289;42.688;23.330;2023-08-17T00:53:11;20.60;99.90
46562;DHT22;32289;42.688;23.330;2023-08-17T00:56:53;20.60;99.90
46562;DHT22;32289;42.688;23.330;2023-08-17T01:00:35;20.60;99.90
46562;DHT22;32289;42.688;23.330;2023-08-17T01:08:42;20.50;99.90
46562;DHT22;32289;42.688;23.330;2023-08-17T01:12:31;20.50;99.90
46562;DHT22;32289;42.688;23.330;2023-08-17T01:29:43;20.40;99.90
46562;DHT22;32289;42.688;23.330;2023-08-17T01:33:34;20.30;99.90
46562;DHT22;32289;42.688;23.330;2023-08-17T01:37:18;20.30;99.90
46562;DHT22;32289;42.688;23.330;2023-08-17T01:41:01;20.30;99.90
46562;DHT22;32289;42.688;23.330;2023-08-17T01:44:42;20.20;99.90
46562;DHT22;32289;42.688;23.330;2023-08-17T01:48:23;20.20;99.90
46562;DHT22;32289;42.688;23.330;2023-08-17T01:56:41;20.20;99.90
46562;DHT22;32289;42.688;23.330;2023-08-17T02:00:21;20.20;99.90
46562;DHT22;32289;42.688;23.330;2023-08-17T02:13:29;20.00;99.90
46562;DHT22;32289;42.688;23.330;2023-08-17T02:17:10;19.90;99.90
46562;DHT22;32289;42.688;23.330;2023-08-17T02:25:28;19.90;99.90
46562;DHT22;32289;42.688;23.330;2023-08-17T02:29:17;19.80;99.90
46562;DHT22;32289;42.688;23.330;2023-08-17T02:32:58;19.80;99.90
46562;DHT22;32289;42.688;23.330;2023-08-17T02:41:15;19.70;99.90
46562;DHT22;32289;42.688;23.330;2023-08-17T02:44:56;19.70;99.90
46562;DHT22;32289;42.688;23.330;2023-08-17T02:53:13;19.40;99.90
46562;DHT22;32289;42.688;23.330;2023-08-17T03:01:31;19.50;99.90
46562;DHT22;32289;42.688;23.330;2023-08-17T03:05:12;19.50;99.90
46562;DHT22;32289;42.688;23.330;2023-08-17T03:13:37;19.40;99.90
46562;DHT22;32289;42.688;23.330;2023-08-17T03:17:17;19.40;99.90
46562;DHT22;32289;42.688;23.330;2023-08-17T03:20:58;19.30;99.90
46562;DHT22;32289;42.688;23.330;2023-08-17T03:29:16;19.20;99.90
46562;DHT22;32289;42.688;23.330;2023-08-17T03:32:57;19.20;99.90
46562;DHT22;32289;42.688;23.330;2023-08-17T03:36:37;19.10;99.90
46562;DHT22;32289;42.688;23.330;2023-08-17T03:40:18;19.10;99.90
46562;DHT22;32289;42.688;23.330;2023-08-17T03:44:21;19.00;99.90
46562;DHT22;32289;42.688;23.330;2023-08-17T03:48:01;19.00;99.90
46562;DHT22;32289;42.688;23.330;2023-08-17T03:51:42;19.00;99.90
46562;DHT22;32289;42.688;23.330;2023-08-17T03:55:45;19.00;99.90
46562;DHT22;32289;42.688;23.330;2023-08-17T03:59:25;19.00;99.90
46562;DHT22;32289;42.688;23.330;2023-08-17T04:03:07;19.10;99.90
46562;DHT22;32289;42.688;23.330;2023-08-17T04:06:47;19.20;99.90
46562;DHT22;32289;42.688;23.330;2023-08-17T04:10:29;19.10;99.90
46562;DHT22;32289;42.688;23.330;2023-08-17T04:14:09;19.20;99.90
46562;DHT22;32289;42.688;23.330;2023-08-17T04:17:50;19.20;99.90
46562;DHT22;32289;42.688;23.330;2023-08-17T04:21:31;19.20;99.90
46562;DHT22;32289;42.688;23.330;2023-08-17T04:25:13;19.40;99.90
46562;DHT22;32289;42.688;23.330;2023-08-17T04:28:54;19.30;99.90
46562;DHT22;32289;42.688;23.330;2023-08-17T04:32:34;19.40;99.90
46562;DHT22;32289;42.688;23.330;2023-08-17T04:36:15;19.50;99.90
46562;DHT22;32289;42.688;23.330;2023-08-17T04:39:55;19.60;99.90
46562;DHT22;32289;42.688;23.330;2023-08-17T04:47:43;19.60;99.90
46562;DHT22;32289;42.688;23.330;2023-08-17T04:51:23;19.80;99.90
46562;DHT22;32289;42.688;23.330;2023-08-17T04:55:04;19.90;99.90
46562;DHT22;32289;42.688;23.330;2023-08-17T04:59:04;19.90;99.90
46562;DHT22;32289;42.688;23.330;2023-08-17T05:02:44;20.60;99.90
46562;DHT22;32289;42.688;23.330;2023-08-17T05:06:28;21.70;97.20
46562;DHT22;32289;42.688;23.330;2023-08-17T05:10:09;23.80;91.30
46562;DHT22;32289;42.688;23.330;2023-08-17T05:13:49;24.50;85.20
46562;DHT22;32289;42.688;23.330;2023-08-17T05:17:30;24.50;82.80
46562;DHT22;32289;42.688;23.330;2023-08-17T05:21:11;23.70;83.20
46562;DHT22;32289;42.688;23.330;2023-08-17T05:24:51;21.90;91.50
46562;DHT22;32289;42.688;23.330;2023-08-17T05:28:32;21.60;92.70
46562;DHT22;32289;42.688;23.330;2023-08-17T05:32:13;21.80;93.10
46562;DHT22;32289;42.688;23.330;2023-08-17T05:35:54;23.90;86.80
46562;DHT22;32289;42.688;23.330;2023-08-17T05:39:35;24.80;82.30
46562;DHT22;32289;42.688;23.330;2023-08-17T05:43:16;25.40;77.80
46562;DHT22;32289;42.688;23.330;2023-08-17T05:46:56;26.70;73.50
46562;DHT22;32289;42.688;23.330;2023-08-17T05:50:37;26.60;72.90
46562;DHT22;32289;42.688;23.330;2023-08-17T05:54:21;25.50;74.50
46562;DHT22;32289;42.688;23.330;2023-08-17T05:58:02;25.00;76.10
46562;DHT22;32289;42.688;23.330;2023-08-17T06:01:44;25.10;74.90
46562;DHT22;32289;42.688;23.330;2023-08-17T06:05:24;25.50;73.10
46562;DHT22;32289;42.688;23.330;2023-08-17T06:09:07;25.80;74.40
46562;DHT22;32289;42.688;23.330;2023-08-17T06:12:49;25.60;75.90
46562;DHT22;32289;42.688;23.330;2023-08-17T06:16:29;26.00;79.50
46562;DHT22;32289;42.688;23.330;2023-08-17T06:20:11;26.10;81.30
46562;DHT22;32289;42.688;23.330;2023-08-17T06:23:52;26.20;82.30
46562;DHT22;32289;42.688;23.330;2023-08-17T06:27:33;26.10;80.70
46562;DHT22;32289;42.688;23.330;2023-08-17T06:31:17;26.40;76.30
46562;DHT22;32289;42.688;23.330;2023-08-17T06:34:58;26.30;77.20
46562;DHT22;32289;42.688;23.330;2023-08-17T06:38:38;27.00;73.80
46562;DHT22;32289;42.688;23.330;2023-08-17T06:42:19;26.60;74.10
46562;DHT22;32289;42.688;23.330;2023-08-17T06:46:00;27.00;70.10
46562;DHT22;32289;42.688;23.330;2023-08-17T06:49:42;26.90;71.50
46562;DHT22;32289;42.688;23.330;2023-08-17T06:53:23;27.40;71.20
46562;DHT22;32289;42.688;23.330;2023-08-17T06:57:04;27.20;72.00
46562;DHT22;32289;42.688;23.330;2023-08-17T07:00:44;28.00;67.60
46562;DHT22;32289;42.688;23.330;2023-08-17T07:04:25;28.10;65.90
46562;DHT22;32289;42.688;23.330;2023-08-17T07:08:07;28.00;67.50
46562;DHT22;32289;42.688;23.330;2023-08-17T07:11:47;27.90;61.90
46562;DHT22;32289;42.688;23.330;2023-08-17T07:15:29;28.30;61.60
46562;DHT22;32289;42.688;23.330;2023-08-17T07:19:10;28.70;59.00
46562;DHT22;32289;42.688;23.330;2023-08-17T07:22:51;28.70;59.80
46562;DHT22;32289;42.688;23.330;2023-08-17T07:26:32;28.60;58.50
46562;DHT22;32289;42.688;23.330;2023-08-17T07:30:13;29.40;57.80
46562;DHT22;32289;42.688;23.330;2023-08-17T07:33:53;29.50;55.00
46562;DHT22;32289;42.688;23.330;2023-08-17T07:37:34;30.10;55.80
46562;DHT22;32289;42.688;23.330;2023-08-17T07:41:15;30.30;54.60
46562;DHT22;32289;42.688;23.330;2023-08-17T07:44:56;30.20;53.40
46562;DHT22;32289;42.688;23.330;2023-08-17T07:48:37;30.60;53.60
46562;DHT22;32289;42.688;23.330;2023-08-17T07:52:17;31.20;52.60
46562;DHT22;32289;42.688;23.330;2023-08-17T07:55:58;31.70;51.70
46562;DHT22;32289;42.688;23.330;2023-08-17T07:59:39;31.00;52.20
46562;DHT22;32289;42.688;23.330;2023-08-17T08:03:19;31.70;49.90
46562;DHT22;32289;42.688;23.330;2023-08-17T08:07:00;31.40;51.40
46562;DHT22;32289;42.688;23.330;2023-08-17T08:10:41;31.40;50.10
46562;DHT22;32289;42.688;23.330;2023-08-17T08:14:21;31.50;51.60
46562;DHT22;32289;42.688;23.330;2023-08-17T08:18:02;32.00;49.60
46562;DHT22;32289;42.688;23.330;2023-08-17T08:21:43;31.90;49.70
46562;DHT22;32289;42.688;23.330;2023-08-17T08:25:24;32.40;49.90
46562;DHT22;32289;42.688;23.330;2023-08-17T08:29:04;32.60;48.20
46562;DHT22;32289;42.688;23.330;2023-08-17T08:32:45;32.50;48.50
46562;DHT22;32289;42.688;23.330;2023-08-17T08:36:26;31.80;49.90
46562;DHT22;32289;42.688;23.330;2023-08-17T08:40:11;32.10;49.60
46562;DHT22;32289;42.688;23.330;2023-08-17T08:43:53;31.40;50.70
46562;DHT22;32289;42.688;23.330;2023-08-17T08:47:36;31.30;51.80
46562;DHT22;32289;42.688;23.330;2023-08-17T08:51:22;33.40;49.10
46562;DHT22;32289;42.688;23.330;2023-08-17T08:58:48;32.90;49.90
46562;DHT22;32289;42.688;23.330;2023-08-17T09:02:30;31.60;49.60
46562;DHT22;32289;42.688;23.330;2023-08-17T09:06:11;31.80;49.10
46562;DHT22;32289;42.688;23.330;2023-08-17T09:09:52;33.50;47.60
46562;DHT22;32289;42.688;23.330;2023-08-17T09:13:34;31.90;49.90
46562;DHT22;32289;42.688;23.330;2023-08-17T09:17:23;32.30;49.10
46562;DHT22;32289;42.688;23.330;2023-08-17T09:21:04;33.20;48.50
46562;DHT22;32289;42.688;23.330;2023-08-17T09:24:45;33.20;47.50
46562;DHT22;32289;42.688;23.330;2023-08-17T09:28:25;34.30;45.20
46562;DHT22;32289;42.688;23.330;2023-08-17T09:32:06;34.60;45.10
46562;DHT22;32289;42.688;23.330;2023-08-17T09:35:48;34.60;45.00
46562;DHT22;32289;42.688;23.330;2023-08-17T09:39:29;33.10;47.90
46562;DHT22;32289;42.688;23.330;2023-08-17T09:43:10;32.70;47.10
46562;DHT22;32289;42.688;23.330;2023-08-17T09:46:58;32.10;47.40
46562;DHT22;32289;42.688;23.330;2023-08-17T09:50:38;33.50;45.30
46562;DHT22;32289;42.688;23.330;2023-08-17T09:54:23;32.80;46.60
46562;DHT22;32289;42.688;23.330;2023-08-17T09:58:04;32.90;47.90
46562;DHT22;32289;42.688;23.330;2023-08-17T10:01:49;32.50;47.40
46562;DHT22;32289;42.688;23.330;2023-08-17T10:05:37;33.00;45.70
46562;DHT22;32289;42.688;23.330;2023-08-17T10:09:23;32.10;46.90
46562;DHT22;32289;42.688;23.330;2023-08-17T10:13:31;31.70;46.00
46562;DHT22;32289;42.688;23.330;2023-08-17T10:17:19;32.50;45.30
46562;DHT22;32289;42.688;23.330;2023-08-17T10:21:10;31.80;46.00
46562;DHT22;32289;42.688;23.330;2023-08-17T10:24:54;32.80;45.90
46562;DHT22;32289;42.688;23.330;2023-08-17T10:28:36;33.50;45.10
46562;DHT22;32289;42.688;23.330;2023-08-17T10:32:18;33.20;44.70
46562;DHT22;32289;42.688;23.330;2023-08-17T10:36:00;32.20;45.30
46562;DHT22;32289;42.688;23.330;2023-08-17T10:39:45;33.20;45.80
46562;DHT22;32289;42.688;23.330;2023-08-17T10:43:33;34.30;44.30
46562;DHT22;32289;42.688;23.330;2023-08-17T10:47:33;33.70;43.30
46562;DHT22;32289;42.688;23.330;2023-08-17T10:51:13;31.80;44.70
46562;DHT22;32289;42.688;23.330;2023-08-17T10:54:54;32.60;44.10
46562;DHT22;32289;42.688;23.330;2023-08-17T10:58:38;32.80;45.70
46562;DHT22;32289;42.688;23.330;2023-08-17T11:02:22;33.30;46.30
46562;DHT22;32289;42.688;23.330;2023-08-17T11:06:16;33.20;45.70
46562;DHT22;32289;42.688;23.330;2023-08-17T11:09:58;34.00;45.40
46562;DHT22;32289;42.688;23.330;2023-08-17T11:13:43;32.50;44.70
46562;DHT22;32289;42.688;23.330;2023-08-17T11:17:24;31.80;46.30
46562;DHT22;32289;42.688;23.330;2023-08-17T11:21:07;32.10;47.10
46562;DHT22;32289;42.688;23.330;2023-08-17T11:24:48;32.40;46.70
46562;DHT22;32289;42.688;23.330;2023-08-17T11:28:32;33.20;46.70
46562;DHT22;32289;42.688;23.330;2023-08-17T11:32:21;32.40;46.40
46562;DHT22;32289;42.688;23.330;2023-08-17T11:36:03;32.50;46.60
46562;DHT22;32289;42.688;23.330;2023-08-17T11:39:45;33.70;45.50
46562;DHT22;32289;42.688;23.330;2023-08-17T11:43:27;31.80;46.60
46562;DHT22;32289;42.688;23.330;2023-08-17T11:47:08;32.30;46.90
46562;DHT22;32289;42.688;23.330;2023-08-17T11:50:51;33.30;45.10
46562;DHT22;32289;42.688;23.330;2023-08-17T11:54:40;31.60;46.40
46562;DHT22;32289;42.688;23.330;2023-08-17T11:58:35;31.60;47.00
46562;DHT22;32289;42.688;23.330;2023-08-17T12:02:16;31.90;48.00
46562;DHT22;32289;42.688;23.330;2023-08-17T12:05:57;33.00;47.00
46562;DHT22;32289;42.688;23.330;2023-08-17T12:09:38;31.60;47.70
46562;DHT22;32289;42.688;23.330;2023-08-17T12:13:18;31.10;48.90
46562;DHT22;32289;42.688;23.330;2023-08-17T12:16:59;31.80;48.80
46562;DHT22;32289;42.688;23.330;2023-08-17T12:20:40;33.00;47.20
46562;DHT22;32289;42.688;23.330;2023-08-17T12:24:23;33.30;46.70
46562;DHT22;32289;42.688;23.330;2023-08-17T12:28:05;33.10;48.10
46562;DHT22;32289;42.688;23.330;2023-08-17T12:31:45;32.10;53.10
46562;DHT22;32289;42.688;23.330;2023-08-17T12:35:26;31.70;53.10
46562;DHT22;32289;42.688;23.330;2023-08-17T12:39:07;31.10;53.90
46562;DHT22;32289;42.688;23.330;2023-08-17T12:42:48;31.10;53.30
46562;DHT22;32289;42.688;23.330;2023-08-17T12:46:28;30.90;53.70
46562;DHT22;32289;42.688;23.330;2023-08-17T12:50:13;30.90;55.30
46562;DHT22;32289;42.688;23.330;2023-08-17T12:53:53;30.80;54.50
46562;DHT22;32289;42.688;23.330;2023-08-17T12:57:34;30.60;55.40
46562;DHT22;32289;42.688;23.330;2023-08-17T13:01:15;30.60;55.60
46562;DHT22;32289;42.688;23.330;2023-08-17T13:04:55;30.60;56.10
46562;DHT22;32289;42.688;23.330;2023-08-17T13:08:36;30.60;55.50
46562;DHT22;32289;42.688;23.330;2023-08-17T13:12:17;30.50;55.40
46562;DHT22;32289;42.688;23.330;2023-08-17T13:15:57;30.80;54.60
46562;DHT22;32289;42.688;23.330;2023-08-17T13:19:38;30.70;55.00
46562;DHT22;32289;42.688;23.330;2023-08-17T13:23:19;30.60;55.70
46562;DHT22;32289;42.688;23.330;2023-08-17T13:26:59;30.60;55.90
46562;DHT22;32289;42.688;23.330;2023-08-17T13:30:40;30.60;56.40
46562;DHT22;32289;42.688;23.330;2023-08-17T13:34:21;30.80;56.20
46562;DHT22;32289;42.688;23.330;2023-08-17T13:38:01;30.50;56.70
46562;DHT22;32289;42.688;23.330;2023-08-17T13:41:44;30.50;55.30
46562;DHT22;32289;42.688;23.330;2023-08-17T13:45:25;30.70;55.70
46562;DHT22;32289;42.688;23.330;2023-08-17T13:49:06;30.80;56.10
46562;DHT22;32289;42.688;23.330;2023-08-17T13:52:46;30.70;55.70
46562;DHT22;32289;42.688;23.330;2023-08-17T13:56:27;30.60;56.10
46562;DHT22;32289;42.688;23.330;2023-08-17T14:00:08;30.50;56.00
46562;DHT22;32289;42.688;23.330;2023-08-17T14:03:49;30.50;55.60
46562;DHT22;32289;42.688;23.330;2023-08-17T14:07:30;30.50;55.20
46562;DHT22;32289;42.688;23.330;2023-08-17T14:11:10;30.40;55.50
46562;DHT22;32289;42.688;23.330;2023-08-17T14:14:51;30.30;55.80
46562;DHT22;32289;42.688;23.330;2023-08-17T14:18:31;30.50;55.80
46562;DHT22;32289;42.688;23.330;2023-08-17T14:22:12;30.30;54.80
46562;DHT22;32289;42.688;23.330;2023-08-17T14:25:53;30.30;55.50
46562;DHT22;32289;42.688;23.330;2023-08-17T14:29:33;30.20;55.00
46562;DHT22;32289;42.688;23.330;2023-08-17T14:33:14;30.10;55.00
46562;DHT22;32289;42.688;23.330;2023-08-17T14:36:55;30.00;55.10
46562;DHT22;32289;42.688;23.330;2023-08-17T14:40:36;29.80;55.40
46562;DHT22;32289;42.688;23.330;2023-08-17T14:44:17;29.70;56.00
46562;DHT22;32289;42.688;23.330;2023-08-17T14:47:58;29.70;56.30
46562;DHT22;32289;42.688;23.330;2023-08-17T14:51:40;29.70;55.30
46562;DHT22;32289;42.688;23.330;2023-08-17T14:55:21;29.70;55.50
46562;DHT22;32289;42.688;23.330;2023-08-17T14:59:02;29.80;55.60
46562;DHT22;32289;42.688;23.330;2023-08-17T15:02:42;29.90;55.70
46562;DHT22;32289;42.688;23.330;2023-08-17T15:06:23;30.00;56.00
46562;DHT22;32289;42.688;23.330;2023-08-17T15:10:05;30.10;54.50
46562;DHT22;32289;42.688;23.330;2023-08-17T15:13:46;30.10;54.10
46562;DHT22;32289;42.688;23.330;2023-08-17T15:17:26;30.10;54.60
46562;DHT22;32289;42.688;23.330;2023-08-17T15:21:07;30.10;53.80
46562;DHT22;32289;42.688;23.330;2023-08-17T15:24:48;30.10;54.90
46562;DHT22;32289;42.688;23.330;2023-08-17T15:28:28;30.10;55.10
46562;DHT22;32289;42.688;23.330;2023-08-17T15:32:09;30.00;55.10
46562;DHT22;32289;42.688;23.330;2023-08-17T15:35:50;29.90;55.50
46562;DHT22;32289;42.688;23.330;2023-08-17T15:39:30;29.80;55.80
46562;DHT22;32289;42.688;23.330;2023-08-17T15:43:11;29.50;56.20
46562;DHT22;32289;42.688;23.330;2023-08-17T15:46:52;29.50;56.60
46562;DHT22;32289;42.688;23.330;2023-08-17T15:50:32;29.40;56.70
46562;DHT22;32289;42.688;23.330;2023-08-17T15:54:13;29.40;57.30
46562;DHT22;32289;42.688;23.330;2023-08-17T15:57:53;29.40;56.60
46562;DHT22;32289;42.688;23.330;2023-08-17T16:01:34;29.30;56.80
46562;DHT22;32289;42.688;23.330;2023-08-17T16:05:15;29.10;57.30
46562;DHT22;32289;42.688;23.330;2023-08-17T16:08:55;29.10;58.30
46562;DHT22;32289;42.688;23.330;2023-08-17T16:12:36;29.00;58.00
46562;DHT22;32289;42.688;23.330;2023-08-17T16:16:17;29.00;57.70
46562;DHT22;32289;42.688;23.330;2023-08-17T16:19:57;29.00;58.70
46562;DHT22;32289;42.688;23.330;2023-08-17T16:23:38;29.00;58.20
46562;DHT22;32289;42.688;23.330;2023-08-17T16:27:19;28.90;58.50
46562;DHT22;32289;42.688;23.330;2023-08-17T16:30:59;28.90;58.70
46562;DHT22;32289;42.688;23.330;2023-08-17T16:34:40;28.70;59.00
46562;DHT22;32289;42.688;23.330;2023-08-17T16:38:21;28.70;58.70
46562;DHT22;32289;42.688;23.330;2023-08-17T16:42:01;28.60;59.20
46562;DHT22;32289;42.688;23.330;2023-08-17T16:45:42;28.40;59.50
46562;DHT22;32289;42.688;23.330;2023-08-17T16:49:23;28.30;59.30
46562;DHT22;32289;42.688;23.330;2023-08-17T16:53:03;28.20;59.60
46562;DHT22;32289;42.688;23.330;2023-08-17T16:56:44;28.10;59.90
46562;DHT22;32289;42.688;23.330;2023-08-17T17:00:25;28.10;60.00
46562;DHT22;32289;42.688;23.330;2023-08-17T17:04:06;28.00;60.30
46562;DHT22;32289;42.688;23.330;2023-08-17T17:07:46;27.90;60.60
46562;DHT22;32289;42.688;23.330;2023-08-17T17:11:27;27.90;61.20
46562;DHT22;32289;42.688;23.330;2023-08-17T17:15:08;27.90;60.80
46562;DHT22;32289;42.688;23.330;2023-08-17T17:18:49;27.70;61.00
46562;DHT22;32289;42.688;23.330;2023-08-17T17:22:30;27.70;61.00
46562;DHT22;32289;42.688;23.330;2023-08-17T17:26:11;27.60;61.50
46562;DHT22;32289;42.688;23.330;2023-08-17T17:29:52;27.50;61.60
46562;DHT22;32289;42.688;23.330;2023-08-17T17:33:33;27.40;61.70
46562;DHT22;32289;42.688;23.330;2023-08-17T17:37:13;27.30;62.30
46562;DHT22;32289;42.688;23.330;2023-08-17T17:40:56;27.10;62.90
46562;DHT22;32289;42.688;23.330;2023-08-17T17:44:37;27.10;63.40
46562;DHT22;32289;42.688;23.330;2023-08-17T17:48:18;27.00;63.30
46562;DHT22;32289;42.688;23.330;2023-08-17T17:51:59;27.10;63.50
46562;DHT22;32289;42.688;23.330;2023-08-17T17:55:39;27.00;63.80
46562;DHT22;32289;42.688;23.330;2023-08-17T17:59:20;26.90;64.30
46562;DHT22;32289;42.688;23.330;2023-08-17T18:03:11;26.80;64.20
46562;DHT22;32289;42.688;23.330;2023-08-17T18:06:53;26.80;64.60
46562;DHT22;32289;42.688;23.330;2023-08-17T18:10:36;26.90;64.00
46562;DHT22;32289;42.688;23.330;2023-08-17T18:14:17;26.80;64.30
46562;DHT22;32289;42.688;23.330;2023-08-17T18:17:59;26.80;64.30
46562;DHT22;32289;42.688;23.330;2023-08-17T18:21:42;26.70;64.50
46562;DHT22;32289;42.688;23.330;2023-08-17T18:25:22;26.60;65.20
46562;DHT22;32289;42.688;23.330;2023-08-17T18:29:03;26.50;65.70
46562;DHT22;32289;42.688;23.330;2023-08-17T18:32:44;26.40;66.00
46562;DHT22;32289;42.688;23.330;2023-08-17T18:36:25;26.40;67.30
46562;DHT22;32289;42.688;23.330;2023-08-17T18:40:06;26.30;66.40
46562;DHT22;32289;42.688;23.330;2023-08-17T18:43:47;26.30;68.20
46562;DHT22;32289;42.688;23.330;2023-08-17T18:47:28;26.20;68.40
46562;DHT22;32289;42.688;23.330;2023-08-17T18:51:09;26.00;69.10
46562;DHT22;32289;42.688;23.330;2023-08-17T18:55:03;25.70;70.00
46562;DHT22;32289;42.688;23.330;2023-08-17T18:58:43;25.60;70.70
46562;DHT22;32289;42.688;23.330;2023-08-17T19:02:24;25.50;71.40
46562;DHT22;32289;42.688;23.330;2023-08-17T19:06:05;25.30;72.20
46562;DHT22;32289;42.688;23.330;2023-08-17T19:09:46;25.50;72.40
46562;DHT22;32289;42.688;23.330;2023-08-17T19:13:27;25.50;72.90
46562;DHT22;32289;42.688;23.330;2023-08-17T19:17:08;25.50;73.40
46562;DHT22;32289;42.688;23.330;2023-08-17T19:20:48;25.40;74.20
46562;DHT22;32289;42.688;23.330;2023-08-17T19:24:29;25.20;73.40
46562;DHT22;32289;42.688;23.330;2023-08-17T19:28:10;25.00;73.80
46562;DHT22;32289;42.688;23.330;2023-08-17T19:31:53;25.10;73.60
46562;DHT22;32289;42.688;23.330;2023-08-17T19:35:34;25.00;73.60
46562;DHT22;32289;42.688;23.330;2023-08-17T19:39:15;25.00;74.20
46562;DHT22;32289;42.688;23.330;2023-08-17T19:42:55;25.00;74.80
46562;DHT22;32289;42.688;23.330;2023-08-17T19:46:36;25.00;74.10
46562;DHT22;32289;42.688;23.330;2023-08-17T19:50:17;25.00;74.60
46562;DHT22;32289;42.688;23.330;2023-08-17T19:53:58;25.10;74.20
46562;DHT22;32289;42.688;23.330;2023-08-17T19:57:38;25.00;74.40
46562;DHT22;32289;42.688;23.330;2023-08-17T20:01:20;25.00;74.50
46562;DHT22;32289;42.688;23.330;2023-08-17T20:05:02;25.00;74.40
46562;DHT22;32289;42.688;23.330;2023-08-17T20:08:43;25.10;74.50
46562;DHT22;32289;42.688;23.330;2023-08-17T20:12:28;25.00;74.40
46562;DHT22;32289;42.688;23.330;2023-08-17T20:16:09;25.10;74.30
46562;DHT22;32289;42.688;23.330;2023-08-17T20:19:50;25.20;74.10
46562;DHT22;32289;42.688;23.330;2023-08-17T20:23:30;25.20;73.80
46562;DHT22;32289;42.688;23.330;2023-08-17T20:27:11;25.20;73.60
46562;DHT22;32289;42.688;23.330;2023-08-17T20:30:56;25.20;73.60
46562;DHT22;32289;42.688;23.330;2023-08-17T20:34:38;25.20;73.30
46562;DHT22;32289;42.688;23.330;2023-08-17T20:38:20;25.20;73.20
46562;DHT22;32289;42.688;23.330;2023-08-17T20:42:08;25.10;73.20
46562;DHT22;32289;42.688;23.330;2023-08-17T20:45:49;25.00;73.60
46562;DHT22;32289;42.688;23.330;2023-08-17T20:49:29;25.00;73.50
46562;DHT22;32289;42.688;23.330;2023-08-17T20:53:11;25.00;73.70
46562;DHT22;32289;42.688;23.330;2023-08-17T20:56:57;24.90;73.90
46562;DHT22;32289;42.688;23.330;2023-08-17T21:00:38;24.90;74.30
46562;DHT22;32289;42.688;23.330;2023-08-17T21:04:19;24.80;74.60
46562;DHT22;32289;42.688;23.330;2023-08-17T21:08:00;24.70;74.70
46562;DHT22;32289;42.688;23.330;2023-08-17T21:11:42;24.70;74.80
46562;DHT22;32289;42.688;23.330;2023-08-17T21:15:22;24.60;74.80
46562;DHT22;32289;42.688;23.330;2023-08-17T21:19:03;24.60;75.20
46562;DHT22;32289;42.688;23.330;2023-08-17T21:22:47;24.50;75.40
46562;DHT22;32289;42.688;23.330;2023-08-17T21:26:31;24.60;75.00
46562;DHT22;32289;42.688;23.330;2023-08-17T21:30:15;24.60;74.80
46562;DHT22;32289;42.688;23.330;2023-08-17T21:33:56;24.60;74.50
46562;DHT22;32289;42.688;23.330;2023-08-17T21:37:36;24.60;74.40
46562;DHT22;32289;42.688;23.330;2023-08-17T21:41:17;24.50;74.60
46562;DHT22;32289;42.688;23.330;2023-08-17T21:44:58;24.50;74.40
46562;DHT22;32289;42.688;23.330;2023-08-17T21:48:38;24.50;74.20
46562;DHT22;32289;42.688;23.330;2023-08-17T21:52:19;24.50;73.70
46562;DHT22;32289;42.688;23.330;2023-08-17T21:56:00;24.50;74.20
46562;DHT22;32289;42.688;23.330;2023-08-17T21:59:41;24.40;74.60
46562;DHT22;32289;42.688;23.330;2023-08-17T22:03:21;24.30;74.80
46562;DHT22;32289;42.688;23.330;2023-08-17T22:07:02;24.40;74.40
46562;DHT22;32289;42.688;23.330;2023-08-17T22:10:45;24.30;74.50
46562;DHT22;32289;42.688;23.330;2023-08-17T22:14:25;24.20;75.10
46562;DHT22;32289;42.688;23.330;2023-08-17T22:18:08;24.10;75.80
46562;DHT22;32289;42.688;23.330;2023-08-17T22:21:49;24.00;76.80
46562;DHT22;32289;42.688;23.330;2023-08-17T22:25:30;23.90;77.30
46562;DHT22;32289;42.688;23.330;2023-08-17T22:29:11;23.80;77.50
46562;DHT22;32289;42.688;23.330;2023-08-17T22:32:52;23.70;78.10
46562;DHT22;32289;42.688;23.330;2023-08-17T22:36:33;23.70;78.40
46562;DHT22;32289;42.688;23.330;2023-08-17T22:40:14;23.60;78.60
46562;DHT22;32289;42.688;23.330;2023-08-17T22:43:55;23.50;78.90
46562;DHT22;32289;42.688;23.330;2023-08-17T22:47:35;23.40;79.20
46562;DHT22;32289;42.688;23.330;2023-08-17T22:51:16;23.30;79.40
46562;DHT22;32289;42.688;23.330;2023-08-17T22:54:57;23.30;79.10
46562;DHT22;32289;42.688;23.330;2023-08-17T22:58:40;23.30;79.30
46562;DHT22;32289;42.688;23.330;2023-08-17T23:02:20;23.30;78.90
46562;DHT22;32289;42.688;23.330;2023-08-17T23:06:01;23.30;79.10
46562;DHT22;32289;42.688;23.330;2023-08-17T23:09:42;23.20;78.70
46562;DHT22;32289;42.688;23.330;2023-08-17T23:13:22;23.20;79.00
46562;DHT22;32289;42.688;23.330;2023-08-17T23:17:03;23.20;78.60
46562;DHT22;32289;42.688;23.330;2023-08-17T23:20:44;23.10;78.40
46562;DHT22;32289;42.688;23.330;2023-08-17T23:24:26;23.10;78.50
46562;DHT22;32289;42.688;23.330;2023-08-17T23:28:07;23.10;78.70
46562;DHT22;32289;42.688;23.330;2023-08-17T23:31:48;23.10;78.50
46562;DHT22;32289;42.688;23.330;2023-08-17T23:35:28;23.00;78.90
46562;DHT22;32289;42.688;23.330;2023-08-17T23:39:09;23.00;79.00
46562;DHT22;32289;42.688;23.330;2023-08-17T23:42:50;22.90;79.10
46562;DHT22;32289;42.688;23.330;2023-08-17T23:46:30;22.90;79.40
46562;DHT22;32289;42.688;23.330;2023-08-17T23:50:11;22.90;79.30
46562;DHT22;32289;42.688;23.330;2023-08-17T23:53:52;22.90;79.30
46562;DHT22;32289;42.688;23.330;2023-08-17T23:57:32;22.90;79.20
